<?xml version="1.0" encoding="UTF-8" standalone="no" ?>
<gpx xmlns="http://www.topografix.com/GPX/1/1" xmlns:xsi="http://www.w3.org/2001/XMLSchema-instance" xsi:schemaLocation="http://www.topografix.com/GPX/1/1 http://www.topografix.com/GPX/1/1/gpx.xsd" version="1.1" creator="VisuGPX - https://www.visugpx.com">
  <metadata>
    <name>Tour de France 2019</name>
    <desc><![CDATA[4272km en 2 mois en tandem avec notre petit chien dans le panier avant]]></desc>
  </metadata>
  <trk>
    <name><![CDATA[Tracé 20191105-085943]]></name>
    <trkseg>
      <trkpt lat="45.92675" lon="-0.85561">
        <ele>8.912</ele>
        <time>2019-11-05T08:00:10Z</time>
      </trkpt>
      <trkpt lat="45.92641" lon="-0.85619">
        <ele>11.704</ele>
        <time>2019-11-05T08:05:46Z</time>
      </trkpt>
      <trkpt lat="45.92561" lon="-0.85725">
        <ele>12.64</ele>
        <time>2019-11-05T08:06:19Z</time>
      </trkpt>
      <trkpt lat="45.92615" lon="-0.85842">
        <ele>15.017</ele>
        <time>2019-11-05T08:06:49Z</time>
      </trkpt>
      <trkpt lat="45.92753" lon="-0.85983">
        <ele>13.7</ele>
        <time>2019-11-05T08:07:19Z</time>
      </trkpt>
      <trkpt lat="45.92843" lon="-0.86195">
        <ele>10.205</ele>
        <time>2019-11-05T08:07:52Z</time>
      </trkpt>
      <trkpt lat="45.92889" lon="-0.86318">
        <ele>12.818</ele>
        <time>2019-11-05T08:08:22Z</time>
      </trkpt>
      <trkpt lat="45.92942" lon="-0.86429">
        <ele>11.675</ele>
        <time>2019-11-05T08:08:52Z</time>
      </trkpt>
      <trkpt lat="45.93019" lon="-0.86534">
        <ele>14.213</ele>
        <time>2019-11-05T08:09:25Z</time>
      </trkpt>
      <trkpt lat="45.93077" lon="-0.86658">
        <ele>11.977</ele>
        <time>2019-11-05T08:09:55Z</time>
      </trkpt>
      <trkpt lat="45.93052" lon="-0.86816">
        <ele>16.385</ele>
        <time>2019-11-05T08:10:25Z</time>
      </trkpt>
      <trkpt lat="45.92891" lon="-0.86851">
        <ele>8.649</ele>
        <time>2019-11-05T08:10:55Z</time>
      </trkpt>
      <trkpt lat="45.92961" lon="-0.86937">
        <ele>4.533</ele>
        <time>2019-11-05T08:11:28Z</time>
      </trkpt>
      <trkpt lat="45.93058" lon="-0.87028">
        <ele>3.958</ele>
        <time>2019-11-05T08:11:58Z</time>
      </trkpt>
      <trkpt lat="45.93169" lon="-0.87137">
        <ele>3.092</ele>
        <time>2019-11-05T08:12:28Z</time>
      </trkpt>
      <trkpt lat="45.93307" lon="-0.87266">
        <ele>4.427</ele>
        <time>2019-11-05T08:13:01Z</time>
      </trkpt>
      <trkpt lat="45.93429" lon="-0.87382">
        <ele>5.672</ele>
        <time>2019-11-05T08:13:31Z</time>
      </trkpt>
      <trkpt lat="45.93532" lon="-0.87482">
        <ele>4.027</ele>
        <time>2019-11-05T08:14:01Z</time>
      </trkpt>
      <trkpt lat="45.93635" lon="-0.876">
        <ele>7.486</ele>
        <time>2019-11-05T08:14:31Z</time>
      </trkpt>
      <trkpt lat="45.93735" lon="-0.87714">
        <ele>6.69</ele>
        <time>2019-11-05T08:15:04Z</time>
      </trkpt>
      <trkpt lat="45.93834" lon="-0.87832">
        <ele>10.488</ele>
        <time>2019-11-05T08:15:34Z</time>
      </trkpt>
      <trkpt lat="45.93926" lon="-0.8794">
        <ele>10.593</ele>
        <time>2019-11-05T08:16:04Z</time>
      </trkpt>
      <trkpt lat="45.93988" lon="-0.88071">
        <ele>11.474</ele>
        <time>2019-11-05T08:16:37Z</time>
      </trkpt>
      <trkpt lat="45.93951" lon="-0.88231">
        <ele>9.9</ele>
        <time>2019-11-05T08:17:07Z</time>
      </trkpt>
      <trkpt lat="45.93965" lon="-0.88398">
        <ele>7.833</ele>
        <time>2019-11-05T08:17:37Z</time>
      </trkpt>
      <trkpt lat="45.94062" lon="-0.88586">
        <ele>3.86</ele>
        <time>2019-11-05T08:18:10Z</time>
      </trkpt>
      <trkpt lat="45.94151" lon="-0.88734">
        <ele>8.402</ele>
        <time>2019-11-05T08:18:40Z</time>
      </trkpt>
      <trkpt lat="45.94205" lon="-0.88872">
        <ele>13.978</ele>
        <time>2019-11-05T08:19:10Z</time>
      </trkpt>
      <trkpt lat="45.94242" lon="-0.89035">
        <ele>16.826</ele>
        <time>2019-11-05T08:19:40Z</time>
      </trkpt>
      <trkpt lat="45.94264" lon="-0.89243">
        <ele>7.8</ele>
        <time>2019-11-05T08:20:13Z</time>
      </trkpt>
      <trkpt lat="45.94345" lon="-0.89289">
        <ele>6.724</ele>
        <time>2019-11-05T08:20:43Z</time>
      </trkpt>
      <trkpt lat="45.94425" lon="-0.89285">
        <ele>8.669</ele>
        <time>2019-11-05T08:21:13Z</time>
      </trkpt>
      <trkpt lat="45.94456" lon="-0.89402">
        <ele>19.863</ele>
        <time>2019-11-05T08:21:46Z</time>
      </trkpt>
      <trkpt lat="45.94491" lon="-0.89524">
        <ele>25.644</ele>
        <time>2019-11-05T08:22:16Z</time>
      </trkpt>
      <trkpt lat="45.9453" lon="-0.89654">
        <ele>23.704</ele>
        <time>2019-11-05T08:22:46Z</time>
      </trkpt>
      <trkpt lat="45.94567" lon="-0.89777">
        <ele>29.593</ele>
        <time>2019-11-05T08:23:16Z</time>
      </trkpt>
      <trkpt lat="45.94606" lon="-0.89909">
        <ele>28.44</ele>
        <time>2019-11-05T08:23:49Z</time>
      </trkpt>
      <trkpt lat="45.94623" lon="-0.90023">
        <ele>32.212</ele>
        <time>2019-11-05T08:24:19Z</time>
      </trkpt>
      <trkpt lat="45.94643" lon="-0.90149">
        <ele>30.408</ele>
        <time>2019-11-05T08:24:49Z</time>
      </trkpt>
      <trkpt lat="45.94662" lon="-0.90286">
        <ele>27.342</ele>
        <time>2019-11-05T08:25:22Z</time>
      </trkpt>
      <trkpt lat="45.94685" lon="-0.90413">
        <ele>29.04</ele>
        <time>2019-11-05T08:25:52Z</time>
      </trkpt>
      <trkpt lat="45.94705" lon="-0.90541">
        <ele>31.473</ele>
        <time>2019-11-05T08:26:22Z</time>
      </trkpt>
      <trkpt lat="45.94734" lon="-0.90727">
        <ele>30.044</ele>
        <time>2019-11-05T08:26:55Z</time>
      </trkpt>
      <trkpt lat="45.94762" lon="-0.90902">
        <ele>29.273</ele>
        <time>2019-11-05T08:27:25Z</time>
      </trkpt>
      <trkpt lat="45.9481" lon="-0.91001">
        <ele>27.425</ele>
        <time>2019-11-05T08:27:55Z</time>
      </trkpt>
      <trkpt lat="45.94823" lon="-0.91097">
        <ele>28.647</ele>
        <time>2019-11-05T08:28:25Z</time>
      </trkpt>
      <trkpt lat="45.94824" lon="-0.91308">
        <ele>32.603</ele>
        <time>2019-11-05T08:28:58Z</time>
      </trkpt>
      <trkpt lat="45.94854" lon="-0.91494">
        <ele>32.953</ele>
        <time>2019-11-05T08:29:28Z</time>
      </trkpt>
      <trkpt lat="45.94886" lon="-0.91695">
        <ele>26.101</ele>
        <time>2019-11-05T08:29:58Z</time>
      </trkpt>
      <trkpt lat="45.94926" lon="-0.91959">
        <ele>16.67</ele>
        <time>2019-11-05T08:30:31Z</time>
      </trkpt>
      <trkpt lat="45.94965" lon="-0.92213">
        <ele>10.204</ele>
        <time>2019-11-05T08:31:01Z</time>
      </trkpt>
      <trkpt lat="45.94998" lon="-0.92414">
        <ele>10.257</ele>
        <time>2019-11-05T08:31:31Z</time>
      </trkpt>
      <trkpt lat="45.95029" lon="-0.9261">
        <ele>6.084</ele>
        <time>2019-11-05T08:32:01Z</time>
      </trkpt>
      <trkpt lat="45.95061" lon="-0.92819">
        <ele>4.181</ele>
        <time>2019-11-05T08:32:34Z</time>
      </trkpt>
      <trkpt lat="45.95074" lon="-0.92977">
        <ele>5.775</ele>
        <time>2019-11-05T08:33:04.001Z</time>
      </trkpt>
      <trkpt lat="45.95087" lon="-0.93066">
        <ele>6.272</ele>
        <time>2019-11-05T08:33:34.001Z</time>
      </trkpt>
      <trkpt lat="45.95069" lon="-0.93232">
        <ele>11.547</ele>
        <time>2019-11-05T08:34:07.001Z</time>
      </trkpt>
      <trkpt lat="45.95067" lon="-0.93426">
        <ele>7.488</ele>
        <time>2019-11-05T08:34:37.001Z</time>
      </trkpt>
      <trkpt lat="45.95065" lon="-0.93619">
        <ele>4.472</ele>
        <time>2019-11-05T08:35:07.001Z</time>
      </trkpt>
      <trkpt lat="45.95066" lon="-0.9379">
        <ele>5.555</ele>
        <time>2019-11-05T08:35:40.001Z</time>
      </trkpt>
      <trkpt lat="45.95058" lon="-0.93951">
        <ele>7.952</ele>
        <time>2019-11-05T08:36:10.001Z</time>
      </trkpt>
      <trkpt lat="45.95057" lon="-0.94101">
        <ele>6.627</ele>
        <time>2019-11-05T08:36:40.001Z</time>
      </trkpt>
      <trkpt lat="45.95053" lon="-0.94288">
        <ele>7.827</ele>
        <time>2019-11-05T08:37:10.001Z</time>
      </trkpt>
      <trkpt lat="45.95052" lon="-0.94445">
        <ele>8.202</ele>
        <time>2019-11-05T08:37:55.001Z</time>
      </trkpt>
      <trkpt lat="45.9505" lon="-0.94597">
        <ele>4.591</ele>
        <time>2019-11-05T08:38:25.001Z</time>
      </trkpt>
      <trkpt lat="45.95044" lon="-0.94789">
        <ele>8.375</ele>
        <time>2019-11-05T08:38:55.001Z</time>
      </trkpt>
      <trkpt lat="45.9504" lon="-0.95009">
        <ele>7.3</ele>
        <time>2019-11-05T08:39:28.001Z</time>
      </trkpt>
      <trkpt lat="45.95117" lon="-0.95152">
        <ele>9.159</ele>
        <time>2019-11-05T08:39:58.001Z</time>
      </trkpt>
      <trkpt lat="45.95228" lon="-0.95228">
        <ele>11.671</ele>
        <time>2019-11-05T08:40:28.001Z</time>
      </trkpt>
      <trkpt lat="45.95308" lon="-0.95257">
        <ele>7.578</ele>
        <time>2019-11-05T08:44:13.001Z</time>
      </trkpt>
      <trkpt lat="45.95402" lon="-0.9534">
        <ele>7.169</ele>
        <time>2019-11-05T08:44:46.001Z</time>
      </trkpt>
      <trkpt lat="45.95498" lon="-0.95459">
        <ele>5.526</ele>
        <time>2019-11-05T08:45:16Z</time>
      </trkpt>
      <trkpt lat="45.95568" lon="-0.95518">
        <ele>9.09</ele>
        <time>2019-11-05T08:45:46.001Z</time>
      </trkpt>
      <trkpt lat="45.95649" lon="-0.95587">
        <ele>10.432</ele>
        <time>2019-11-05T08:46:19.001Z</time>
      </trkpt>
      <trkpt lat="45.95737" lon="-0.95664">
        <ele>12.178</ele>
        <time>2019-11-05T08:46:49.001Z</time>
      </trkpt>
      <trkpt lat="45.9587" lon="-0.95738">
        <ele>10.277</ele>
        <time>2019-11-05T08:47:19.001Z</time>
      </trkpt>
      <trkpt lat="45.95864" lon="-0.95947">
        <ele>9.609</ele>
        <time>2019-11-05T08:47:52.001Z</time>
      </trkpt>
      <trkpt lat="45.95865" lon="-0.96231">
        <ele>8.563</ele>
        <time>2019-11-05T08:48:22.001Z</time>
      </trkpt>
      <trkpt lat="45.95861" lon="-0.9646">
        <ele>9.044</ele>
        <time>2019-11-05T08:48:52.001Z</time>
      </trkpt>
      <trkpt lat="45.95847" lon="-0.9664">
        <ele>10.054</ele>
        <time>2019-11-05T08:49:22.001Z</time>
      </trkpt>
      <trkpt lat="45.95833" lon="-0.96828">
        <ele>10.147</ele>
        <time>2019-11-05T08:49:55.001Z</time>
      </trkpt>
      <trkpt lat="45.95805" lon="-0.96966">
        <ele>7.895</ele>
        <time>2019-11-05T08:50:25.001Z</time>
      </trkpt>
      <trkpt lat="45.9565" lon="-0.96923">
        <ele>3.909</ele>
        <time>2019-11-05T08:50:55.001Z</time>
      </trkpt>
      <trkpt lat="45.95543" lon="-0.96981">
        <ele>7.672</ele>
        <time>2019-11-05T08:51:28.001Z</time>
      </trkpt>
      <trkpt lat="45.95513" lon="-0.97099">
        <ele>15.268</ele>
        <time>2019-11-05T08:51:58.001Z</time>
      </trkpt>
      <trkpt lat="45.95488" lon="-0.97207">
        <ele>20.788</ele>
        <time>2019-11-05T08:52:28.001Z</time>
      </trkpt>
      <trkpt lat="45.95453" lon="-0.97323">
        <ele>19.732</ele>
        <time>2019-11-05T08:53:01.001Z</time>
      </trkpt>
      <trkpt lat="45.95422" lon="-0.97433">
        <ele>20.416</ele>
        <time>2019-11-05T08:53:31.001Z</time>
      </trkpt>
      <trkpt lat="45.95389" lon="-0.97613">
        <ele>19.035</ele>
        <time>2019-11-05T08:54:01.001Z</time>
      </trkpt>
      <trkpt lat="45.95365" lon="-0.97734">
        <ele>12.41</ele>
        <time>2019-11-05T08:54:31.001Z</time>
      </trkpt>
      <trkpt lat="45.955" lon="-0.97786">
        <ele>11.811</ele>
        <time>2019-11-05T08:55:04.001Z</time>
      </trkpt>
      <trkpt lat="45.95687" lon="-0.97831">
        <ele>11.852</ele>
        <time>2019-11-05T08:55:34.001Z</time>
      </trkpt>
      <trkpt lat="45.95855" lon="-0.97852">
        <ele>5.86</ele>
        <time>2019-11-05T08:56:04.001Z</time>
      </trkpt>
      <trkpt lat="45.95845" lon="-0.98063">
        <ele>8.991</ele>
        <time>2019-11-05T08:56:37.001Z</time>
      </trkpt>
      <trkpt lat="45.95879" lon="-0.98266">
        <ele>11.084</ele>
        <time>2019-11-05T08:57:07.001Z</time>
      </trkpt>
      <trkpt lat="45.95952" lon="-0.98407">
        <ele>9.006</ele>
        <time>2019-11-05T08:57:37.001Z</time>
      </trkpt>
      <trkpt lat="45.96006" lon="-0.98567">
        <ele>12.29</ele>
        <time>2019-11-05T08:58:07.001Z</time>
      </trkpt>
      <trkpt lat="45.96106" lon="-0.98639">
        <ele>12.508</ele>
        <time>2019-11-05T08:58:40.001Z</time>
      </trkpt>
      <trkpt lat="45.96212" lon="-0.98623">
        <ele>7.087</ele>
        <time>2019-11-05T08:59:10.001Z</time>
      </trkpt>
      <trkpt lat="45.96291" lon="-0.98599">
        <ele>11.098</ele>
        <time>2019-11-05T08:59:40.001Z</time>
      </trkpt>
      <trkpt lat="45.96377" lon="-0.98578">
        <ele>13.113</ele>
        <time>2019-11-05T09:00:13.001Z</time>
      </trkpt>
      <trkpt lat="45.9645" lon="-0.98544">
        <ele>15.117</ele>
        <time>2019-11-05T09:00:43.001Z</time>
      </trkpt>
      <trkpt lat="45.96508" lon="-0.98454">
        <ele>17.844</ele>
        <time>2019-11-05T09:01:13.001Z</time>
      </trkpt>
      <trkpt lat="45.9659" lon="-0.98379">
        <ele>17.373</ele>
        <time>2019-11-05T09:01:46.001Z</time>
      </trkpt>
      <trkpt lat="45.96693" lon="-0.98341">
        <ele>17.603</ele>
        <time>2019-11-05T09:02:16Z</time>
      </trkpt>
      <trkpt lat="45.96849" lon="-0.98307">
        <ele>12.266</ele>
        <time>2019-11-05T09:02:46.001Z</time>
      </trkpt>
      <trkpt lat="45.96972" lon="-0.9847">
        <ele>8.89</ele>
        <time>2019-11-05T09:03:16Z</time>
      </trkpt>
      <trkpt lat="45.97148" lon="-0.98654">
        <ele>7.353</ele>
        <time>2019-11-05T09:03:49.001Z</time>
      </trkpt>
      <trkpt lat="45.97269" lon="-0.98816">
        <ele>2.554</ele>
        <time>2019-11-05T09:04:19.001Z</time>
      </trkpt>
      <trkpt lat="45.97364" lon="-0.9894">
        <ele>2.883</ele>
        <time>2019-11-05T09:04:49.001Z</time>
      </trkpt>
      <trkpt lat="45.97463" lon="-0.99094">
        <ele>5.083</ele>
        <time>2019-11-05T09:05:22.001Z</time>
      </trkpt>
      <trkpt lat="45.97553" lon="-0.99238">
        <ele>3.243</ele>
        <time>2019-11-05T09:05:52.001Z</time>
      </trkpt>
      <trkpt lat="45.97644" lon="-0.99382">
        <ele>1.301</ele>
        <time>2019-11-05T09:06:22.001Z</time>
      </trkpt>
      <trkpt lat="45.9773" lon="-0.99515">
        <ele>3.24</ele>
        <time>2019-11-05T09:06:52.001Z</time>
      </trkpt>
      <trkpt lat="45.97831" lon="-0.99672">
        <ele>2.222</ele>
        <time>2019-11-05T09:07:25.001Z</time>
      </trkpt>
      <trkpt lat="45.97906" lon="-0.99833">
        <ele>3.363</ele>
        <time>2019-11-05T09:07:55.001Z</time>
      </trkpt>
      <trkpt lat="45.97984" lon="-1.00001">
        <ele>2.652</ele>
        <time>2019-11-05T09:08:25.001Z</time>
      </trkpt>
      <trkpt lat="45.98018" lon="-1.00187">
        <ele>6.487</ele>
        <time>2019-11-05T09:08:58.001Z</time>
      </trkpt>
      <trkpt lat="45.98018" lon="-1.00356">
        <ele>5.367</ele>
        <time>2019-11-05T09:09:28.001Z</time>
      </trkpt>
      <trkpt lat="45.98019" lon="-1.00549">
        <ele>8.892</ele>
        <time>2019-11-05T09:09:58.001Z</time>
      </trkpt>
      <trkpt lat="45.98035" lon="-1.00761">
        <ele>8.59</ele>
        <time>2019-11-05T09:10:31.001Z</time>
      </trkpt>
      <trkpt lat="45.98045" lon="-1.00946">
        <ele>2</ele>
        <time>2019-11-05T09:11:01.001Z</time>
      </trkpt>
      <trkpt lat="45.98053" lon="-1.01138">
        <ele>4.817</ele>
        <time>2019-11-05T09:11:31.001Z</time>
      </trkpt>
      <trkpt lat="45.98077" lon="-1.01319">
        <ele>5.106</ele>
        <time>2019-11-05T09:12:01.001Z</time>
      </trkpt>
      <trkpt lat="45.9812" lon="-1.01502">
        <ele>7.524</ele>
        <time>2019-11-05T09:12:34.001Z</time>
      </trkpt>
      <trkpt lat="45.98178" lon="-1.01666">
        <ele>1.8</ele>
        <time>2019-11-05T09:13:04.001Z</time>
      </trkpt>
      <trkpt lat="45.98237" lon="-1.01829">
        <ele>0.691</ele>
        <time>2019-11-05T09:13:34.001Z</time>
      </trkpt>
      <trkpt lat="45.98304" lon="-1.02011">
        <ele>2.229</ele>
        <time>2019-11-05T09:14:07.001Z</time>
      </trkpt>
      <trkpt lat="45.98365" lon="-1.02182">
        <ele>3.207</ele>
        <time>2019-11-05T09:14:37.001Z</time>
      </trkpt>
      <trkpt lat="45.98421" lon="-1.02335">
        <ele>3.944</ele>
        <time>2019-11-05T09:15:07.001Z</time>
      </trkpt>
      <trkpt lat="45.9848" lon="-1.02498">
        <ele>4.699</ele>
        <time>2019-11-05T09:15:37.001Z</time>
      </trkpt>
      <trkpt lat="45.98547" lon="-1.02678">
        <ele>4.443</ele>
        <time>2019-11-05T09:16:10.001Z</time>
      </trkpt>
      <trkpt lat="45.98599" lon="-1.02839">
        <ele>1.536</ele>
        <time>2019-11-05T09:16:40.001Z</time>
      </trkpt>
      <trkpt lat="45.98643" lon="-1.0298">
        <ele>6.417</ele>
        <time>2019-11-05T09:17:10.001Z</time>
      </trkpt>
      <trkpt lat="45.98684" lon="-1.03116">
        <ele>10.868</ele>
        <time>2019-11-05T09:17:43.001Z</time>
      </trkpt>
      <trkpt lat="45.98703" lon="-1.03154">
        <ele>10.21</ele>
        <time>2019-11-05T09:19:13.001Z</time>
      </trkpt>
      <trkpt lat="45.98841" lon="-1.03027">
        <ele>7.712</ele>
        <time>2019-11-05T09:19:43.001Z</time>
      </trkpt>
      <trkpt lat="45.98995" lon="-1.02901">
        <ele>7.924</ele>
        <time>2019-11-05T09:20:16Z</time>
      </trkpt>
      <trkpt lat="45.99131" lon="-1.02846">
        <ele>8.083</ele>
        <time>2019-11-05T09:20:46.001Z</time>
      </trkpt>
      <trkpt lat="45.99225" lon="-1.02735">
        <ele>7.803</ele>
        <time>2019-11-05T09:21:16Z</time>
      </trkpt>
      <trkpt lat="45.99287" lon="-1.02807">
        <ele>4.835</ele>
        <time>2019-11-05T09:21:46.001Z</time>
      </trkpt>
      <trkpt lat="45.99327" lon="-1.03033">
        <ele>4.975</ele>
        <time>2019-11-05T09:22:19.001Z</time>
      </trkpt>
      <trkpt lat="45.99345" lon="-1.03231">
        <ele>5.46</ele>
        <time>2019-11-05T09:22:49.001Z</time>
      </trkpt>
      <trkpt lat="45.99411" lon="-1.0342">
        <ele>11.978</ele>
        <time>2019-11-05T09:23:19.001Z</time>
      </trkpt>
      <trkpt lat="45.99499" lon="-1.03582">
        <ele>7.919</ele>
        <time>2019-11-05T09:23:52.001Z</time>
      </trkpt>
      <trkpt lat="45.99524" lon="-1.03724">
        <ele>11.638</ele>
        <time>2019-11-05T09:24:22.001Z</time>
      </trkpt>
      <trkpt lat="45.99569" lon="-1.03859">
        <ele>11.137</ele>
        <time>2019-11-05T09:24:52.001Z</time>
      </trkpt>
      <trkpt lat="45.99665" lon="-1.04018">
        <ele>11.529</ele>
        <time>2019-11-05T09:25:25.001Z</time>
      </trkpt>
      <trkpt lat="45.9979" lon="-1.04103">
        <ele>5.751</ele>
        <time>2019-11-05T09:25:55.001Z</time>
      </trkpt>
      <trkpt lat="45.99917" lon="-1.04165">
        <ele>7.129</ele>
        <time>2019-11-05T09:26:25.001Z</time>
      </trkpt>
      <trkpt lat="46.0005" lon="-1.04241">
        <ele>3.941</ele>
        <time>2019-11-05T09:26:55.001Z</time>
      </trkpt>
      <trkpt lat="46.00245" lon="-1.04342">
        <ele>0.021</ele>
        <time>2019-11-05T09:27:28.001Z</time>
      </trkpt>
      <trkpt lat="46.00383" lon="-1.04415">
        <ele>4.1</ele>
        <time>2019-11-05T09:27:58.001Z</time>
      </trkpt>
      <trkpt lat="46.00535" lon="-1.04495">
        <ele>2.242</ele>
        <time>2019-11-05T09:28:28.001Z</time>
      </trkpt>
      <trkpt lat="46.00692" lon="-1.0458">
        <ele>1.127</ele>
        <time>2019-11-05T09:29:01.001Z</time>
      </trkpt>
      <trkpt lat="46.00833" lon="-1.04654">
        <ele>0.936</ele>
        <time>2019-11-05T09:29:31.001Z</time>
      </trkpt>
      <trkpt lat="46.00979" lon="-1.04712">
        <ele>1.799</ele>
        <time>2019-11-05T09:30:01.001Z</time>
      </trkpt>
      <trkpt lat="46.01107" lon="-1.04631">
        <ele>1.329</ele>
        <time>2019-11-05T09:30:31.001Z</time>
      </trkpt>
      <trkpt lat="46.01156" lon="-1.04832">
        <ele>3.834</ele>
        <time>2019-11-05T09:31:04.001Z</time>
      </trkpt>
      <trkpt lat="46.0128" lon="-1.04888">
        <ele>4.758</ele>
        <time>2019-11-05T09:31:34.001Z</time>
      </trkpt>
      <trkpt lat="46.01383" lon="-1.04925">
        <ele>6.626</ele>
        <time>2019-11-05T09:32:04.001Z</time>
      </trkpt>
      <trkpt lat="46.0149" lon="-1.04882">
        <ele>8.841</ele>
        <time>2019-11-05T09:32:37.001Z</time>
      </trkpt>
      <trkpt lat="46.01615" lon="-1.04912">
        <ele>9.161</ele>
        <time>2019-11-05T09:33:07.001Z</time>
      </trkpt>
      <trkpt lat="46.01713" lon="-1.04871">
        <ele>8.923</ele>
        <time>2019-11-05T09:33:37.001Z</time>
      </trkpt>
      <trkpt lat="46.01836" lon="-1.04775">
        <ele>13.329</ele>
        <time>2019-11-05T09:34:10.001Z</time>
      </trkpt>
      <trkpt lat="46.01967" lon="-1.04689">
        <ele>13.336</ele>
        <time>2019-11-05T09:34:40.001Z</time>
      </trkpt>
      <trkpt lat="46.02069" lon="-1.04582">
        <ele>6.999</ele>
        <time>2019-11-05T09:35:10.001Z</time>
      </trkpt>
      <trkpt lat="46.02196" lon="-1.04612">
        <ele>3.228</ele>
        <time>2019-11-05T09:35:40.001Z</time>
      </trkpt>
      <trkpt lat="46.02364" lon="-1.04663">
        <ele>3.818</ele>
        <time>2019-11-05T09:36:13.001Z</time>
      </trkpt>
      <trkpt lat="46.02511" lon="-1.04709">
        <ele>2.43</ele>
        <time>2019-11-05T09:36:43.001Z</time>
      </trkpt>
      <trkpt lat="46.02656" lon="-1.04755">
        <ele>2.629</ele>
        <time>2019-11-05T09:37:13.001Z</time>
      </trkpt>
      <trkpt lat="46.02821" lon="-1.04803">
        <ele>2.191</ele>
        <time>2019-11-05T09:37:46.001Z</time>
      </trkpt>
      <trkpt lat="46.02974" lon="-1.04814">
        <ele>1.379</ele>
        <time>2019-11-05T09:38:16Z</time>
      </trkpt>
      <trkpt lat="46.03124" lon="-1.04785">
        <ele>1.674</ele>
        <time>2019-11-05T09:38:46.001Z</time>
      </trkpt>
      <trkpt lat="46.03263" lon="-1.04727">
        <ele>1.796</ele>
        <time>2019-11-05T09:39:16Z</time>
      </trkpt>
      <trkpt lat="46.03424" lon="-1.04663">
        <ele>4.021</ele>
        <time>2019-11-05T09:39:49.001Z</time>
      </trkpt>
      <trkpt lat="46.03572" lon="-1.04604">
        <ele>0.601</ele>
        <time>2019-11-05T09:40:19.001Z</time>
      </trkpt>
      <trkpt lat="46.03705" lon="-1.04522">
        <ele>3.689</ele>
        <time>2019-11-05T09:40:49.001Z</time>
      </trkpt>
      <trkpt lat="46.03835" lon="-1.04376">
        <ele>4.909</ele>
        <time>2019-11-05T09:41:22.001Z</time>
      </trkpt>
      <trkpt lat="46.03958" lon="-1.04254">
        <ele>4.967</ele>
        <time>2019-11-05T09:41:52.001Z</time>
      </trkpt>
      <trkpt lat="46.04078" lon="-1.04136">
        <ele>5.7</ele>
        <time>2019-11-05T09:42:22.001Z</time>
      </trkpt>
      <trkpt lat="46.04207" lon="-1.04">
        <ele>7.634</ele>
        <time>2019-11-05T09:42:55.001Z</time>
      </trkpt>
      <trkpt lat="46.04265" lon="-1.04044">
        <ele>9.692</ele>
        <time>2019-11-05T09:43:25.001Z</time>
      </trkpt>
      <trkpt lat="46.04248" lon="-1.04253">
        <ele>9.029</ele>
        <time>2019-11-05T09:43:55.001Z</time>
      </trkpt>
      <trkpt lat="46.04231" lon="-1.04455">
        <ele>5.154</ele>
        <time>2019-11-05T09:44:25.001Z</time>
      </trkpt>
      <trkpt lat="46.04259" lon="-1.04663">
        <ele>4.633</ele>
        <time>2019-11-05T09:45:01.001Z</time>
      </trkpt>
      <trkpt lat="46.04393" lon="-1.04646">
        <ele>2.056</ele>
        <time>2019-11-05T09:45:31.001Z</time>
      </trkpt>
      <trkpt lat="46.04525" lon="-1.04758">
        <ele>3.203</ele>
        <time>2019-11-05T09:46:01.001Z</time>
      </trkpt>
      <trkpt lat="46.04662" lon="-1.04871">
        <ele>4.744</ele>
        <time>2019-11-05T09:46:34.001Z</time>
      </trkpt>
      <trkpt lat="46.04784" lon="-1.04968">
        <ele>7.47</ele>
        <time>2019-11-05T09:47:04.001Z</time>
      </trkpt>
      <trkpt lat="46.04912" lon="-1.05099">
        <ele>7.43</ele>
        <time>2019-11-05T09:47:34.001Z</time>
      </trkpt>
      <trkpt lat="46.05041" lon="-1.05211">
        <ele>2.773</ele>
        <time>2019-11-05T09:48:04.001Z</time>
      </trkpt>
      <trkpt lat="46.05184" lon="-1.05325">
        <ele>1.136</ele>
        <time>2019-11-05T09:48:37.001Z</time>
      </trkpt>
      <trkpt lat="46.0531" lon="-1.05427">
        <ele>2.045</ele>
        <time>2019-11-05T09:49:07.001Z</time>
      </trkpt>
      <trkpt lat="46.05436" lon="-1.05532">
        <ele>2.146</ele>
        <time>2019-11-05T09:49:37.001Z</time>
      </trkpt>
      <trkpt lat="46.05572" lon="-1.0564">
        <ele>1.792</ele>
        <time>2019-11-05T09:50:10.001Z</time>
      </trkpt>
      <trkpt lat="46.05675" lon="-1.0579">
        <ele>1.863</ele>
        <time>2019-11-05T09:50:40.001Z</time>
      </trkpt>
      <trkpt lat="46.05697" lon="-1.05861">
        <ele>6.343</ele>
        <time>2019-11-05T09:52:28.001Z</time>
      </trkpt>
      <trkpt lat="46.05767" lon="-1.05922">
        <ele>12.172</ele>
        <time>2019-11-05T09:53:01.001Z</time>
      </trkpt>
      <trkpt lat="46.05703" lon="-1.05867">
        <ele>5.933</ele>
        <time>2019-11-05T09:53:37.001Z</time>
      </trkpt>
      <trkpt lat="46.05697" lon="-1.05865">
        <ele>7.021</ele>
        <time>2019-11-05T09:54:55.001Z</time>
      </trkpt>
      <trkpt lat="46.05705" lon="-1.05895">
        <ele>6.653</ele>
        <time>2019-11-05T09:56:04.001Z</time>
      </trkpt>
      <trkpt lat="46.05724" lon="-1.06051">
        <ele>6.683</ele>
        <time>2019-11-05T09:56:40.001Z</time>
      </trkpt>
      <trkpt lat="46.05749" lon="-1.06209">
        <ele>2.657</ele>
        <time>2019-11-05T09:57:10.001Z</time>
      </trkpt>
      <trkpt lat="46.05774" lon="-1.06393">
        <ele>4.312</ele>
        <time>2019-11-05T09:57:40.001Z</time>
      </trkpt>
      <trkpt lat="46.0575" lon="-1.06548">
        <ele>0.468</ele>
        <time>2019-11-05T09:58:13.001Z</time>
      </trkpt>
      <trkpt lat="46.05619" lon="-1.06607">
        <ele>2.934</ele>
        <time>2019-11-05T09:58:43.001Z</time>
      </trkpt>
      <trkpt lat="46.05488" lon="-1.06665">
        <ele>2.332</ele>
        <time>2019-11-05T09:59:13.001Z</time>
      </trkpt>
      <trkpt lat="46.05332" lon="-1.06736">
        <ele>2.986</ele>
        <time>2019-11-05T09:59:46.001Z</time>
      </trkpt>
      <trkpt lat="46.05205" lon="-1.06793">
        <ele>1.713</ele>
        <time>2019-11-05T10:00:16Z</time>
      </trkpt>
      <trkpt lat="46.05085" lon="-1.06845">
        <ele>3.573</ele>
        <time>2019-11-05T10:00:46.001Z</time>
      </trkpt>
      <trkpt lat="46.05059" lon="-1.06909">
        <ele>3.868</ele>
        <time>2019-11-05T10:01:16Z</time>
      </trkpt>
      <trkpt lat="46.05091" lon="-1.07039">
        <ele>1.379</ele>
        <time>2019-11-05T10:01:49.001Z</time>
      </trkpt>
      <trkpt lat="46.05148" lon="-1.07185">
        <ele>3.177</ele>
        <time>2019-11-05T10:02:19.001Z</time>
      </trkpt>
      <trkpt lat="46.05205" lon="-1.07332">
        <ele>3.239</ele>
        <time>2019-11-05T10:02:49.001Z</time>
      </trkpt>
      <trkpt lat="46.05269" lon="-1.07497">
        <ele>2.89</ele>
        <time>2019-11-05T10:03:22.001Z</time>
      </trkpt>
      <trkpt lat="46.05324" lon="-1.07656">
        <ele>0.902</ele>
        <time>2019-11-05T10:03:52.001Z</time>
      </trkpt>
      <trkpt lat="46.05351" lon="-1.07834">
        <ele>3.25</ele>
        <time>2019-11-05T10:04:22.001Z</time>
      </trkpt>
      <trkpt lat="46.05341" lon="-1.08016">
        <ele>1.624</ele>
        <time>2019-11-05T10:04:52.001Z</time>
      </trkpt>
      <trkpt lat="46.05313" lon="-1.08235">
        <ele>1.236</ele>
        <time>2019-11-05T10:05:25.001Z</time>
      </trkpt>
      <trkpt lat="46.05301" lon="-1.08338">
        <ele>2.826</ele>
        <time>2019-11-05T10:05:55.001Z</time>
      </trkpt>
      <trkpt lat="46.05306" lon="-1.08476">
        <ele>3.5</ele>
        <time>2019-11-05T10:06:25.001Z</time>
      </trkpt>
      <trkpt lat="46.05331" lon="-1.08658">
        <ele>1.341</ele>
        <time>2019-11-05T10:06:58.001Z</time>
      </trkpt>
      <trkpt lat="46.05377" lon="-1.0876">
        <ele>4.33</ele>
        <time>2019-11-05T10:07:28.001Z</time>
      </trkpt>
      <trkpt lat="46.05461" lon="-1.08745">
        <ele>11.714</ele>
        <time>2019-11-05T10:07:58.001Z</time>
      </trkpt>
      <trkpt lat="46.05549" lon="-1.08729">
        <ele>16.821</ele>
        <time>2019-11-05T10:08:31.001Z</time>
      </trkpt>
      <trkpt lat="46.05648" lon="-1.08712">
        <ele>13.626</ele>
        <time>2019-11-05T10:09:01.001Z</time>
      </trkpt>
      <trkpt lat="46.05733" lon="-1.08697">
        <ele>17.574</ele>
        <time>2019-11-05T10:09:31.001Z</time>
      </trkpt>
      <trkpt lat="46.05813" lon="-1.08677">
        <ele>19.812</ele>
        <time>2019-11-05T10:10:01.001Z</time>
      </trkpt>
      <trkpt lat="46.05868" lon="-1.08757">
        <ele>22.588</ele>
        <time>2019-11-05T10:10:34.001Z</time>
      </trkpt>
      <trkpt lat="46.05945" lon="-1.08955">
        <ele>14.096</ele>
        <time>2019-11-05T10:11:04.001Z</time>
      </trkpt>
      <trkpt lat="46.06091" lon="-1.09048">
        <ele>11.512</ele>
        <time>2019-11-05T10:11:34.001Z</time>
      </trkpt>
      <trkpt lat="46.06267" lon="-1.09169">
        <ele>2.109</ele>
        <time>2019-11-05T10:12:10.001Z</time>
      </trkpt>
      <trkpt lat="46.06219" lon="-1.09276">
        <ele>3.649</ele>
        <time>2019-11-05T10:12:40.001Z</time>
      </trkpt>
      <trkpt lat="46.06267" lon="-1.09245">
        <ele>5.597</ele>
        <time>2019-11-05T10:13:16Z</time>
      </trkpt>
      <trkpt lat="46.06392" lon="-1.09203">
        <ele>6.813</ele>
        <time>2019-11-05T10:13:46.001Z</time>
      </trkpt>
      <trkpt lat="46.0654" lon="-1.09158">
        <ele>1.657</ele>
        <time>2019-11-05T10:14:19.001Z</time>
      </trkpt>
      <trkpt lat="46.06616" lon="-1.09132">
        <ele>5.601</ele>
        <time>2019-11-05T10:14:49.001Z</time>
      </trkpt>
      <trkpt lat="46.06739" lon="-1.09094">
        <ele>4.264</ele>
        <time>2019-11-05T10:15:19.001Z</time>
      </trkpt>
      <trkpt lat="46.06871" lon="-1.09053">
        <ele>5.51</ele>
        <time>2019-11-05T10:15:52.001Z</time>
      </trkpt>
      <trkpt lat="46.06995" lon="-1.09015">
        <ele>2.389</ele>
        <time>2019-11-05T10:16:22.001Z</time>
      </trkpt>
      <trkpt lat="46.07117" lon="-1.08977">
        <ele>4.572</ele>
        <time>2019-11-05T10:16:52.001Z</time>
      </trkpt>
      <trkpt lat="46.07248" lon="-1.08938">
        <ele>11.716</ele>
        <time>2019-11-05T10:17:25.001Z</time>
      </trkpt>
      <trkpt lat="46.07343" lon="-1.0899">
        <ele>15.538</ele>
        <time>2019-11-05T10:17:55.001Z</time>
      </trkpt>
      <trkpt lat="46.07404" lon="-1.09017">
        <ele>21.109</ele>
        <time>2019-11-05T10:18:25.001Z</time>
      </trkpt>
      <trkpt lat="46.07468" lon="-1.0907">
        <ele>24.347</ele>
        <time>2019-11-05T10:18:55.001Z</time>
      </trkpt>
      <trkpt lat="46.07573" lon="-1.09132">
        <ele>23.167</ele>
        <time>2019-11-05T10:19:28.001Z</time>
      </trkpt>
      <trkpt lat="46.0768" lon="-1.09194">
        <ele>25.429</ele>
        <time>2019-11-05T10:19:58.001Z</time>
      </trkpt>
      <trkpt lat="46.07803" lon="-1.09264">
        <ele>22.266</ele>
        <time>2019-11-05T10:20:28.001Z</time>
      </trkpt>
      <trkpt lat="46.07936" lon="-1.0934">
        <ele>8.373</ele>
        <time>2019-11-05T10:21:01.001Z</time>
      </trkpt>
      <trkpt lat="46.08049" lon="-1.09408">
        <ele>14.203</ele>
        <time>2019-11-05T10:21:31.001Z</time>
      </trkpt>
      <trkpt lat="46.08172" lon="-1.0948">
        <ele>11.337</ele>
        <time>2019-11-05T10:22:01.001Z</time>
      </trkpt>
      <trkpt lat="46.08299" lon="-1.09544">
        <ele>4.528</ele>
        <time>2019-11-05T10:22:31.001Z</time>
      </trkpt>
      <trkpt lat="46.08279" lon="-1.09653">
        <ele>3.314</ele>
        <time>2019-11-05T10:23:04.001Z</time>
      </trkpt>
      <trkpt lat="46.08272" lon="-1.09627">
        <ele>3.759</ele>
        <time>2019-11-05T10:24:16Z</time>
      </trkpt>
      <trkpt lat="46.08291" lon="-1.09602">
        <ele>4.389</ele>
        <time>2019-11-05T10:49:19.001Z</time>
      </trkpt>
      <trkpt lat="46.08328" lon="-1.09449">
        <ele>6.313</ele>
        <time>2019-11-05T10:49:52.001Z</time>
      </trkpt>
      <trkpt lat="46.08392" lon="-1.09289">
        <ele>7.816</ele>
        <time>2019-11-05T10:50:22.001Z</time>
      </trkpt>
      <trkpt lat="46.08413" lon="-1.09318">
        <ele>2.1</ele>
        <time>2019-11-05T10:50:55.001Z</time>
      </trkpt>
      <trkpt lat="46.0844" lon="-1.09283">
        <ele>4.579</ele>
        <time>2019-11-05T10:52:28.001Z</time>
      </trkpt>
      <trkpt lat="46.08463" lon="-1.09333">
        <ele>7.508</ele>
        <time>2019-11-05T11:04:37.001Z</time>
      </trkpt>
      <trkpt lat="46.08546" lon="-1.09416">
        <ele>5.863</ele>
        <time>2019-11-05T11:05:07.001Z</time>
      </trkpt>
      <trkpt lat="46.08648" lon="-1.09508">
        <ele>2.176</ele>
        <time>2019-11-05T11:05:37.001Z</time>
      </trkpt>
      <trkpt lat="46.08762" lon="-1.09612">
        <ele>3.692</ele>
        <time>2019-11-05T11:06:10.001Z</time>
      </trkpt>
      <trkpt lat="46.08832" lon="-1.09692">
        <ele>4.352</ele>
        <time>2019-11-05T11:06:43.001Z</time>
      </trkpt>
      <trkpt lat="46.0892" lon="-1.09803">
        <ele>2.003</ele>
        <time>2019-11-05T11:07:13.001Z</time>
      </trkpt>
      <trkpt lat="46.09055" lon="-1.09886">
        <ele>3.429</ele>
        <time>2019-11-05T11:07:46.001Z</time>
      </trkpt>
      <trkpt lat="46.09176" lon="-1.09925">
        <ele>5.413</ele>
        <time>2019-11-05T11:08:16Z</time>
      </trkpt>
      <trkpt lat="46.09313" lon="-1.09956">
        <ele>4.47</ele>
        <time>2019-11-05T11:08:46.001Z</time>
      </trkpt>
      <trkpt lat="46.09459" lon="-1.1001">
        <ele>4.228</ele>
        <time>2019-11-05T11:09:19.001Z</time>
      </trkpt>
      <trkpt lat="46.09525" lon="-1.10079">
        <ele>9.891</ele>
        <time>2019-11-05T11:09:49.001Z</time>
      </trkpt>
      <trkpt lat="46.09594" lon="-1.10175">
        <ele>15.834</ele>
        <time>2019-11-05T11:10:19.001Z</time>
      </trkpt>
      <trkpt lat="46.09659" lon="-1.10286">
        <ele>21.813</ele>
        <time>2019-11-05T11:10:49.001Z</time>
      </trkpt>
      <trkpt lat="46.09739" lon="-1.10419">
        <ele>19.469</ele>
        <time>2019-11-05T11:11:22.001Z</time>
      </trkpt>
      <trkpt lat="46.09827" lon="-1.10493">
        <ele>18.8</ele>
        <time>2019-11-05T11:11:52.001Z</time>
      </trkpt>
      <trkpt lat="46.09917" lon="-1.10572">
        <ele>21.994</ele>
        <time>2019-11-05T11:12:22.001Z</time>
      </trkpt>
      <trkpt lat="46.10043" lon="-1.10685">
        <ele>17.634</ele>
        <time>2019-11-05T11:12:55.001Z</time>
      </trkpt>
      <trkpt lat="46.10095" lon="-1.1076">
        <ele>16.651</ele>
        <time>2019-11-05T11:13:25.001Z</time>
      </trkpt>
      <trkpt lat="46.09983" lon="-1.10793">
        <ele>19.674</ele>
        <time>2019-11-05T11:13:55.001Z</time>
      </trkpt>
      <trkpt lat="46.09957" lon="-1.10883">
        <ele>16.344</ele>
        <time>2019-11-05T11:14:25.001Z</time>
      </trkpt>
      <trkpt lat="46.10059" lon="-1.11072">
        <ele>12.701</ele>
        <time>2019-11-05T11:14:58.001Z</time>
      </trkpt>
      <trkpt lat="46.10163" lon="-1.1121">
        <ele>13.869</ele>
        <time>2019-11-05T11:15:28.001Z</time>
      </trkpt>
      <trkpt lat="46.10239" lon="-1.11284">
        <ele>11.844</ele>
        <time>2019-11-05T11:16:04.001Z</time>
      </trkpt>
      <trkpt lat="46.10365" lon="-1.11369">
        <ele>11.489</ele>
        <time>2019-11-05T11:16:37.001Z</time>
      </trkpt>
      <trkpt lat="46.10371" lon="-1.11517">
        <ele>9.974</ele>
        <time>2019-11-05T11:17:07.001Z</time>
      </trkpt>
      <trkpt lat="46.10333" lon="-1.11702">
        <ele>9.11</ele>
        <time>2019-11-05T11:17:37.001Z</time>
      </trkpt>
      <trkpt lat="46.10379" lon="-1.11831">
        <ele>10.976</ele>
        <time>2019-11-05T11:18:10.001Z</time>
      </trkpt>
      <trkpt lat="46.10501" lon="-1.11873">
        <ele>14.654</ele>
        <time>2019-11-05T11:18:40.001Z</time>
      </trkpt>
      <trkpt lat="46.10572" lon="-1.11738">
        <ele>5.944</ele>
        <time>2019-11-05T11:19:10.001Z</time>
      </trkpt>
      <trkpt lat="46.10659" lon="-1.11565">
        <ele>6.685</ele>
        <time>2019-11-05T11:19:40.001Z</time>
      </trkpt>
      <trkpt lat="46.10793" lon="-1.11623">
        <ele>8.948</ele>
        <time>2019-11-05T11:20:13.001Z</time>
      </trkpt>
      <trkpt lat="46.10877" lon="-1.11743">
        <ele>8.693</ele>
        <time>2019-11-05T11:20:43.001Z</time>
      </trkpt>
      <trkpt lat="46.10972" lon="-1.11824">
        <ele>6.368</ele>
        <time>2019-11-05T11:21:13.001Z</time>
      </trkpt>
      <trkpt lat="46.11032" lon="-1.12008">
        <ele>4.101</ele>
        <time>2019-11-05T11:21:46.001Z</time>
      </trkpt>
      <trkpt lat="46.11133" lon="-1.12101">
        <ele>2.294</ele>
        <time>2019-11-05T11:22:16Z</time>
      </trkpt>
      <trkpt lat="46.11233" lon="-1.12191">
        <ele>4.464</ele>
        <time>2019-11-05T11:22:46.001Z</time>
      </trkpt>
      <trkpt lat="46.1129" lon="-1.12295">
        <ele>3.99</ele>
        <time>2019-11-05T11:23:16Z</time>
      </trkpt>
      <trkpt lat="46.11362" lon="-1.12368">
        <ele>8.739</ele>
        <time>2019-11-05T11:23:49.001Z</time>
      </trkpt>
      <trkpt lat="46.11448" lon="-1.12355">
        <ele>11.802</ele>
        <time>2019-11-05T11:24:19.001Z</time>
      </trkpt>
      <trkpt lat="46.11538" lon="-1.12343">
        <ele>10.253</ele>
        <time>2019-11-05T11:24:49.001Z</time>
      </trkpt>
      <trkpt lat="46.11642" lon="-1.12317">
        <ele>6.921</ele>
        <time>2019-11-05T11:25:22.001Z</time>
      </trkpt>
      <trkpt lat="46.11757" lon="-1.1233">
        <ele>9.176</ele>
        <time>2019-11-05T11:25:52.001Z</time>
      </trkpt>
      <trkpt lat="46.11852" lon="-1.12311">
        <ele>9.564</ele>
        <time>2019-11-05T11:26:22.001Z</time>
      </trkpt>
      <trkpt lat="46.11951" lon="-1.12327">
        <ele>6.217</ele>
        <time>2019-11-05T11:26:55.001Z</time>
      </trkpt>
      <trkpt lat="46.12062" lon="-1.1237">
        <ele>0.927</ele>
        <time>2019-11-05T11:27:25.001Z</time>
      </trkpt>
      <trkpt lat="46.12174" lon="-1.12424">
        <ele>2.015</ele>
        <time>2019-11-05T11:27:55.001Z</time>
      </trkpt>
      <trkpt lat="46.12281" lon="-1.12488">
        <ele>1.601</ele>
        <time>2019-11-05T11:28:25.001Z</time>
      </trkpt>
      <trkpt lat="46.12375" lon="-1.12543">
        <ele>5.89</ele>
        <time>2019-11-05T11:28:58.001Z</time>
      </trkpt>
      <trkpt lat="46.12468" lon="-1.12601">
        <ele>10.031</ele>
        <time>2019-11-05T11:29:28.001Z</time>
      </trkpt>
      <trkpt lat="46.12562" lon="-1.12664">
        <ele>8.991</ele>
        <time>2019-11-05T11:29:58.001Z</time>
      </trkpt>
      <trkpt lat="46.12669" lon="-1.12744">
        <ele>5.562</ele>
        <time>2019-11-05T11:30:31.001Z</time>
      </trkpt>
      <trkpt lat="46.12757" lon="-1.12842">
        <ele>8.003</ele>
        <time>2019-11-05T11:31:01.001Z</time>
      </trkpt>
      <trkpt lat="46.12818" lon="-1.1283">
        <ele>8.867</ele>
        <time>2019-11-05T11:31:31.001Z</time>
      </trkpt>
      <trkpt lat="46.12894" lon="-1.12772">
        <ele>10.621</ele>
        <time>2019-11-05T11:32:01.001Z</time>
      </trkpt>
      <trkpt lat="46.12967" lon="-1.1286">
        <ele>4.369</ele>
        <time>2019-11-05T11:32:34.001Z</time>
      </trkpt>
      <trkpt lat="46.12942" lon="-1.12985">
        <ele>5.491</ele>
        <time>2019-11-05T11:33:04.001Z</time>
      </trkpt>
      <trkpt lat="46.12999" lon="-1.13067">
        <ele>4.607</ele>
        <time>2019-11-05T11:33:34.001Z</time>
      </trkpt>
      <trkpt lat="46.13069" lon="-1.13141">
        <ele>3.463</ele>
        <time>2019-11-05T11:34:07.001Z</time>
      </trkpt>
      <trkpt lat="46.13119" lon="-1.13172">
        <ele>4.915</ele>
        <time>2019-11-05T11:34:40.001Z</time>
      </trkpt>
      <trkpt lat="46.13135" lon="-1.13286">
        <ele>3.797</ele>
        <time>2019-11-05T11:35:10.001Z</time>
      </trkpt>
      <trkpt lat="46.13152" lon="-1.1341">
        <ele>4.817</ele>
        <time>2019-11-05T11:35:43.001Z</time>
      </trkpt>
      <trkpt lat="46.13167" lon="-1.1352">
        <ele>8.947</ele>
        <time>2019-11-05T11:36:13.001Z</time>
      </trkpt>
      <trkpt lat="46.13186" lon="-1.13636">
        <ele>12.615</ele>
        <time>2019-11-05T11:36:43.001Z</time>
      </trkpt>
      <trkpt lat="46.13183" lon="-1.13753">
        <ele>19.348</ele>
        <time>2019-11-05T11:37:13.001Z</time>
      </trkpt>
      <trkpt lat="46.13173" lon="-1.1391">
        <ele>11.595</ele>
        <time>2019-11-05T11:37:46.001Z</time>
      </trkpt>
      <trkpt lat="46.13153" lon="-1.14123">
        <ele>1.907</ele>
        <time>2019-11-05T11:38:16Z</time>
      </trkpt>
      <trkpt lat="46.13134" lon="-1.14316">
        <ele>2.383</ele>
        <time>2019-11-05T11:38:46.001Z</time>
      </trkpt>
      <trkpt lat="46.13106" lon="-1.14508">
        <ele>1.624</ele>
        <time>2019-11-05T11:39:19.001Z</time>
      </trkpt>
      <trkpt lat="46.13079" lon="-1.14672">
        <ele>2.048</ele>
        <time>2019-11-05T11:39:49.001Z</time>
      </trkpt>
      <trkpt lat="46.13091" lon="-1.14831">
        <ele>2.682</ele>
        <time>2019-11-05T11:40:19.001Z</time>
      </trkpt>
      <trkpt lat="46.13182" lon="-1.14827">
        <ele>4.523</ele>
        <time>2019-11-05T11:40:49.001Z</time>
      </trkpt>
      <trkpt lat="46.13292" lon="-1.14874">
        <ele>3.381</ele>
        <time>2019-11-05T11:41:22.001Z</time>
      </trkpt>
      <trkpt lat="46.13346" lon="-1.14952">
        <ele>3.177</ele>
        <time>2019-11-05T11:41:52.001Z</time>
      </trkpt>
      <trkpt lat="46.13412" lon="-1.15062">
        <ele>5.043</ele>
        <time>2019-11-05T11:42:22.001Z</time>
      </trkpt>
      <trkpt lat="46.13513" lon="-1.1515">
        <ele>4.492</ele>
        <time>2019-11-05T11:42:55.001Z</time>
      </trkpt>
      <trkpt lat="46.13603" lon="-1.15226">
        <ele>5.965</ele>
        <time>2019-11-05T11:43:25.001Z</time>
      </trkpt>
      <trkpt lat="46.13691" lon="-1.15307">
        <ele>6.049</ele>
        <time>2019-11-05T11:43:55.001Z</time>
      </trkpt>
      <trkpt lat="46.13758" lon="-1.15448">
        <ele>4.707</ele>
        <time>2019-11-05T11:44:28.001Z</time>
      </trkpt>
      <trkpt lat="46.13777" lon="-1.15581">
        <ele>4.365</ele>
        <time>2019-11-05T11:44:58.001Z</time>
      </trkpt>
      <trkpt lat="46.13787" lon="-1.15725">
        <ele>5.545</ele>
        <time>2019-11-05T11:45:28.001Z</time>
      </trkpt>
      <trkpt lat="46.13786" lon="-1.15878">
        <ele>6.049</ele>
        <time>2019-11-05T11:45:58.001Z</time>
      </trkpt>
      <trkpt lat="46.13761" lon="-1.16047">
        <ele>7.883</ele>
        <time>2019-11-05T11:46:31.001Z</time>
      </trkpt>
      <trkpt lat="46.13798" lon="-1.16139">
        <ele>11.419</ele>
        <time>2019-11-05T11:47:01.001Z</time>
      </trkpt>
      <trkpt lat="46.1388" lon="-1.16208">
        <ele>15.032</ele>
        <time>2019-11-05T11:47:31.001Z</time>
      </trkpt>
      <trkpt lat="46.1402" lon="-1.16254">
        <ele>13.974</ele>
        <time>2019-11-05T11:48:04.001Z</time>
      </trkpt>
      <trkpt lat="46.14165" lon="-1.16274">
        <ele>12.562</ele>
        <time>2019-11-05T11:48:34.001Z</time>
      </trkpt>
      <trkpt lat="46.14218" lon="-1.16344">
        <ele>10.068</ele>
        <time>2019-11-05T11:49:04.001Z</time>
      </trkpt>
      <trkpt lat="46.14342" lon="-1.16296">
        <ele>15.026</ele>
        <time>2019-11-05T11:49:37.001Z</time>
      </trkpt>
      <trkpt lat="46.14394" lon="-1.16139">
        <ele>7.852</ele>
        <time>2019-11-05T11:50:07.001Z</time>
      </trkpt>
      <trkpt lat="46.14458" lon="-1.15978">
        <ele>7.625</ele>
        <time>2019-11-05T11:50:37.001Z</time>
      </trkpt>
      <trkpt lat="46.14578" lon="-1.15922">
        <ele>13.735</ele>
        <time>2019-11-05T11:51:07.001Z</time>
      </trkpt>
      <trkpt lat="46.14715" lon="-1.15874">
        <ele>13.186</ele>
        <time>2019-11-05T11:51:40.001Z</time>
      </trkpt>
      <trkpt lat="46.14849" lon="-1.15857">
        <ele>16.275</ele>
        <time>2019-11-05T11:52:10.001Z</time>
      </trkpt>
      <trkpt lat="46.14981" lon="-1.1586">
        <ele>11.816</ele>
        <time>2019-11-05T11:52:40.001Z</time>
      </trkpt>
      <trkpt lat="46.15122" lon="-1.15816">
        <ele>10.994</ele>
        <time>2019-11-05T11:53:13.001Z</time>
      </trkpt>
      <trkpt lat="46.15245" lon="-1.15771">
        <ele>12.266</ele>
        <time>2019-11-05T11:53:43.001Z</time>
      </trkpt>
      <trkpt lat="46.15325" lon="-1.15669">
        <ele>10.844</ele>
        <time>2019-11-05T11:54:13.001Z</time>
      </trkpt>
      <trkpt lat="46.15366" lon="-1.15596">
        <ele>6.878</ele>
        <time>2019-11-05T11:54:43.001Z</time>
      </trkpt>
      <trkpt lat="46.15386" lon="-1.15459">
        <ele>5.803</ele>
        <time>2019-11-05T11:55:16Z</time>
      </trkpt>
      <trkpt lat="46.15407" lon="-1.15309">
        <ele>8.023</ele>
        <time>2019-11-05T11:55:46.001Z</time>
      </trkpt>
      <trkpt lat="46.15446" lon="-1.15235">
        <ele>10.618</ele>
        <time>2019-11-05T11:56:16Z</time>
      </trkpt>
      <trkpt lat="46.15475" lon="-1.15207">
        <ele>14.787</ele>
        <time>2019-11-05T11:56:49.001Z</time>
      </trkpt>
      <trkpt lat="46.15486" lon="-1.15062">
        <ele>16.192</ele>
        <time>2019-11-05T11:57:19.001Z</time>
      </trkpt>
      <trkpt lat="46.15505" lon="-1.14929">
        <ele>14.062</ele>
        <time>2019-11-05T11:57:49.001Z</time>
      </trkpt>
      <trkpt lat="46.15475" lon="-1.14807">
        <ele>19.367</ele>
        <time>2019-11-05T11:58:22.001Z</time>
      </trkpt>
      <trkpt lat="46.15386" lon="-1.14695">
        <ele>23.376</ele>
        <time>2019-11-05T11:58:52.001Z</time>
      </trkpt>
      <trkpt lat="46.15466" lon="-1.14563">
        <ele>29.527</ele>
        <time>2019-11-05T11:59:22.001Z</time>
      </trkpt>
      <trkpt lat="46.15555" lon="-1.14427">
        <ele>21.011</ele>
        <time>2019-11-05T11:59:52.001Z</time>
      </trkpt>
      <trkpt lat="46.15611" lon="-1.14305">
        <ele>6.795</ele>
        <time>2019-11-05T12:00:25.001Z</time>
      </trkpt>
      <trkpt lat="46.15673" lon="-1.14278">
        <ele>10.407</ele>
        <time>2019-11-05T12:00:58.001Z</time>
      </trkpt>
      <trkpt lat="46.15668" lon="-1.14147">
        <ele>6.024</ele>
        <time>2019-11-05T12:01:28.001Z</time>
      </trkpt>
      <trkpt lat="46.15716" lon="-1.13972">
        <ele>7.478</ele>
        <time>2019-11-05T12:02:01.001Z</time>
      </trkpt>
      <trkpt lat="46.15768" lon="-1.13781">
        <ele>10.722</ele>
        <time>2019-11-05T12:02:31.001Z</time>
      </trkpt>
      <trkpt lat="46.1583" lon="-1.13571">
        <ele>7.377</ele>
        <time>2019-11-05T12:03:01.001Z</time>
      </trkpt>
      <trkpt lat="46.15887" lon="-1.1337">
        <ele>13.42</ele>
        <time>2019-11-05T12:03:31.001Z</time>
      </trkpt>
      <trkpt lat="46.15947" lon="-1.13147">
        <ele>12.388</ele>
        <time>2019-11-05T12:04:04.001Z</time>
      </trkpt>
      <trkpt lat="46.16006" lon="-1.12941">
        <ele>8.583</ele>
        <time>2019-11-05T12:04:34.001Z</time>
      </trkpt>
      <trkpt lat="46.16056" lon="-1.12762">
        <ele>10.303</ele>
        <time>2019-11-05T12:05:04.001Z</time>
      </trkpt>
      <trkpt lat="46.16117" lon="-1.12548">
        <ele>14.745</ele>
        <time>2019-11-05T12:05:37.001Z</time>
      </trkpt>
      <trkpt lat="46.16164" lon="-1.12355">
        <ele>9.593</ele>
        <time>2019-11-05T12:06:07.001Z</time>
      </trkpt>
      <trkpt lat="46.16164" lon="-1.12251">
        <ele>11.743</ele>
        <time>2019-11-05T12:06:43.001Z</time>
      </trkpt>
      <trkpt lat="46.16221" lon="-1.12057">
        <ele>11.846</ele>
        <time>2019-11-05T12:07:16Z</time>
      </trkpt>
      <trkpt lat="46.16276" lon="-1.11868">
        <ele>8.173</ele>
        <time>2019-11-05T12:07:46.001Z</time>
      </trkpt>
      <trkpt lat="46.16326" lon="-1.11684">
        <ele>10.357</ele>
        <time>2019-11-05T12:08:16Z</time>
      </trkpt>
      <trkpt lat="46.16394" lon="-1.11582">
        <ele>10.549</ele>
        <time>2019-11-05T12:08:46.001Z</time>
      </trkpt>
      <trkpt lat="46.16457" lon="-1.11415">
        <ele>14.259</ele>
        <time>2019-11-05T12:09:19.001Z</time>
      </trkpt>
      <trkpt lat="46.16536" lon="-1.11251">
        <ele>12.418</ele>
        <time>2019-11-05T12:09:49.001Z</time>
      </trkpt>
      <trkpt lat="46.16618" lon="-1.11098">
        <ele>12.011</ele>
        <time>2019-11-05T12:10:19.001Z</time>
      </trkpt>
      <trkpt lat="46.16699" lon="-1.10943">
        <ele>12.632</ele>
        <time>2019-11-05T12:10:52.001Z</time>
      </trkpt>
      <trkpt lat="46.16736" lon="-1.10855">
        <ele>11.655</ele>
        <time>2019-11-05T12:11:22.001Z</time>
      </trkpt>
      <trkpt lat="46.16802" lon="-1.10733">
        <ele>15.989</ele>
        <time>2019-11-05T12:11:52.001Z</time>
      </trkpt>
      <trkpt lat="46.16874" lon="-1.10593">
        <ele>18.486</ele>
        <time>2019-11-05T12:12:22.001Z</time>
      </trkpt>
      <trkpt lat="46.16935" lon="-1.10427">
        <ele>20.702</ele>
        <time>2019-11-05T12:12:55.001Z</time>
      </trkpt>
      <trkpt lat="46.16958" lon="-1.10269">
        <ele>19.586</ele>
        <time>2019-11-05T12:13:25.001Z</time>
      </trkpt>
      <trkpt lat="46.16944" lon="-1.10092">
        <ele>20.296</ele>
        <time>2019-11-05T12:13:55.001Z</time>
      </trkpt>
      <trkpt lat="46.16911" lon="-1.09911">
        <ele>20.588</ele>
        <time>2019-11-05T12:14:28.001Z</time>
      </trkpt>
      <trkpt lat="46.16884" lon="-1.09742">
        <ele>21.408</ele>
        <time>2019-11-05T12:14:58.001Z</time>
      </trkpt>
      <trkpt lat="46.16855" lon="-1.09568">
        <ele>18.44</ele>
        <time>2019-11-05T12:15:28.001Z</time>
      </trkpt>
      <trkpt lat="46.16826" lon="-1.0939">
        <ele>19.3</ele>
        <time>2019-11-05T12:16:01.001Z</time>
      </trkpt>
      <trkpt lat="46.16801" lon="-1.09235">
        <ele>21.249</ele>
        <time>2019-11-05T12:16:31.001Z</time>
      </trkpt>
      <trkpt lat="46.16788" lon="-1.09097">
        <ele>20.585</ele>
        <time>2019-11-05T12:17:01.001Z</time>
      </trkpt>
      <trkpt lat="46.16821" lon="-1.0894">
        <ele>17.165</ele>
        <time>2019-11-05T12:17:31.001Z</time>
      </trkpt>
      <trkpt lat="46.16841" lon="-1.08776">
        <ele>20.34</ele>
        <time>2019-11-05T12:18:04.001Z</time>
      </trkpt>
      <trkpt lat="46.16864" lon="-1.08613">
        <ele>23.937</ele>
        <time>2019-11-05T12:18:34.001Z</time>
      </trkpt>
      <trkpt lat="46.1689" lon="-1.08459">
        <ele>23.399</ele>
        <time>2019-11-05T12:19:04.001Z</time>
      </trkpt>
      <trkpt lat="46.16923" lon="-1.08278">
        <ele>25.211</ele>
        <time>2019-11-05T12:19:37.001Z</time>
      </trkpt>
      <trkpt lat="46.16945" lon="-1.08119">
        <ele>25.04</ele>
        <time>2019-11-05T12:20:07.001Z</time>
      </trkpt>
      <trkpt lat="46.1697" lon="-1.07959">
        <ele>24.889</ele>
        <time>2019-11-05T12:20:37.001Z</time>
      </trkpt>
      <trkpt lat="46.17002" lon="-1.07775">
        <ele>23.428</ele>
        <time>2019-11-05T12:21:10.001Z</time>
      </trkpt>
      <trkpt lat="46.17059" lon="-1.07632">
        <ele>25.362</ele>
        <time>2019-11-05T12:21:40.001Z</time>
      </trkpt>
      <trkpt lat="46.17127" lon="-1.07513">
        <ele>29.697</ele>
        <time>2019-11-05T12:22:10.001Z</time>
      </trkpt>
      <trkpt lat="46.17206" lon="-1.07393">
        <ele>30.941</ele>
        <time>2019-11-05T12:22:40.001Z</time>
      </trkpt>
      <trkpt lat="46.17287" lon="-1.07266">
        <ele>31.494</ele>
        <time>2019-11-05T12:23:13.001Z</time>
      </trkpt>
      <trkpt lat="46.17341" lon="-1.07173">
        <ele>36.018</ele>
        <time>2019-11-05T12:23:43.001Z</time>
      </trkpt>
      <trkpt lat="46.17342" lon="-1.07171">
        <ele>36.485</ele>
        <time>2019-11-05T12:32:34.001Z</time>
      </trkpt>
      <trkpt lat="46.17342" lon="-1.07169">
        <ele>36.617</ele>
        <time>2019-11-05T12:37:40.001Z</time>
      </trkpt>
      <trkpt lat="46.17368" lon="-1.07128">
        <ele>36.183</ele>
        <time>2019-11-05T12:48:31.001Z</time>
      </trkpt>
      <trkpt lat="46.17418" lon="-1.07027">
        <ele>37.094</ele>
        <time>2019-11-05T12:49:01.001Z</time>
      </trkpt>
      <trkpt lat="46.17495" lon="-1.06996">
        <ele>38.012</ele>
        <time>2019-11-05T12:49:34.001Z</time>
      </trkpt>
      <trkpt lat="46.17582" lon="-1.06963">
        <ele>39.24</ele>
        <time>2019-11-05T12:50:13.001Z</time>
      </trkpt>
      <trkpt lat="46.17663" lon="-1.06832">
        <ele>42.129</ele>
        <time>2019-11-05T12:50:43.001Z</time>
      </trkpt>
      <trkpt lat="46.17749" lon="-1.06671">
        <ele>39.496</ele>
        <time>2019-11-05T12:51:13.001Z</time>
      </trkpt>
      <trkpt lat="46.17813" lon="-1.06555">
        <ele>37.01</ele>
        <time>2019-11-05T12:51:46.001Z</time>
      </trkpt>
      <trkpt lat="46.17911" lon="-1.06384">
        <ele>35.588</ele>
        <time>2019-11-05T12:52:16Z</time>
      </trkpt>
      <trkpt lat="46.17997" lon="-1.06227">
        <ele>27.471</ele>
        <time>2019-11-05T12:52:46.001Z</time>
      </trkpt>
      <trkpt lat="46.18086" lon="-1.06067">
        <ele>25.279</ele>
        <time>2019-11-05T12:53:19.001Z</time>
      </trkpt>
      <trkpt lat="46.18159" lon="-1.0594">
        <ele>27.262</ele>
        <time>2019-11-05T12:53:49.001Z</time>
      </trkpt>
      <trkpt lat="46.18229" lon="-1.0583">
        <ele>24.588</ele>
        <time>2019-11-05T12:54:19.001Z</time>
      </trkpt>
      <trkpt lat="46.18298" lon="-1.05766">
        <ele>19.683</ele>
        <time>2019-11-05T12:54:49.001Z</time>
      </trkpt>
      <trkpt lat="46.18361" lon="-1.05698">
        <ele>19.96</ele>
        <time>2019-11-05T12:55:22.001Z</time>
      </trkpt>
      <trkpt lat="46.18411" lon="-1.05652">
        <ele>23.113</ele>
        <time>2019-11-05T12:56:58.001Z</time>
      </trkpt>
      <trkpt lat="46.18478" lon="-1.05584">
        <ele>20.36</ele>
        <time>2019-11-05T12:57:28.001Z</time>
      </trkpt>
      <trkpt lat="46.18559" lon="-1.05505">
        <ele>17.986</ele>
        <time>2019-11-05T12:58:01.001Z</time>
      </trkpt>
      <trkpt lat="46.18637" lon="-1.05429">
        <ele>23.71</ele>
        <time>2019-11-05T12:58:31.001Z</time>
      </trkpt>
      <trkpt lat="46.18735" lon="-1.05393">
        <ele>25.332</ele>
        <time>2019-11-05T12:59:01.001Z</time>
      </trkpt>
      <trkpt lat="46.18848" lon="-1.05408">
        <ele>20.492</ele>
        <time>2019-11-05T12:59:31.001Z</time>
      </trkpt>
      <trkpt lat="46.18997" lon="-1.05442">
        <ele>23.391</ele>
        <time>2019-11-05T13:00:04.001Z</time>
      </trkpt>
      <trkpt lat="46.19145" lon="-1.05469">
        <ele>22.903</ele>
        <time>2019-11-05T13:00:34.001Z</time>
      </trkpt>
      <trkpt lat="46.19275" lon="-1.05497">
        <ele>22.697</ele>
        <time>2019-11-05T13:01:04.001Z</time>
      </trkpt>
      <trkpt lat="46.19398" lon="-1.05518">
        <ele>25.943</ele>
        <time>2019-11-05T13:01:37.001Z</time>
      </trkpt>
      <trkpt lat="46.1949" lon="-1.05526">
        <ele>18.581</ele>
        <time>2019-11-05T13:02:07.001Z</time>
      </trkpt>
      <trkpt lat="46.19481" lon="-1.0564">
        <ele>12.477</ele>
        <time>2019-11-05T13:02:37.001Z</time>
      </trkpt>
      <trkpt lat="46.19506" lon="-1.0575">
        <ele>24.453</ele>
        <time>2019-11-05T13:03:10.001Z</time>
      </trkpt>
      <trkpt lat="46.19532" lon="-1.05858">
        <ele>27.548</ele>
        <time>2019-11-05T13:03:40.001Z</time>
      </trkpt>
      <trkpt lat="46.19498" lon="-1.05967">
        <ele>16.994</ele>
        <time>2019-11-05T13:04:10.001Z</time>
      </trkpt>
      <trkpt lat="46.19472" lon="-1.06081">
        <ele>16.294</ele>
        <time>2019-11-05T13:04:40.001Z</time>
      </trkpt>
      <trkpt lat="46.19422" lon="-1.06152">
        <ele>20.79</ele>
        <time>2019-11-05T13:05:13.001Z</time>
      </trkpt>
      <trkpt lat="46.19504" lon="-1.06111">
        <ele>22.27</ele>
        <time>2019-11-05T13:05:43.001Z</time>
      </trkpt>
      <trkpt lat="46.19581" lon="-1.06075">
        <ele>19.604</ele>
        <time>2019-11-05T13:06:58.001Z</time>
      </trkpt>
      <trkpt lat="46.19666" lon="-1.06021">
        <ele>17.827</ele>
        <time>2019-11-05T13:08:49.001Z</time>
      </trkpt>
      <trkpt lat="46.19801" lon="-1.05962">
        <ele>15.928</ele>
        <time>2019-11-05T13:09:19.001Z</time>
      </trkpt>
      <trkpt lat="46.19909" lon="-1.05857">
        <ele>10.76</ele>
        <time>2019-11-05T13:09:49.001Z</time>
      </trkpt>
      <trkpt lat="46.19973" lon="-1.05701">
        <ele>9.843</ele>
        <time>2019-11-05T13:10:19.001Z</time>
      </trkpt>
      <trkpt lat="46.20063" lon="-1.05631">
        <ele>14.76</ele>
        <time>2019-11-05T13:10:52.001Z</time>
      </trkpt>
      <trkpt lat="46.20165" lon="-1.05589">
        <ele>14.104</ele>
        <time>2019-11-05T13:11:22.001Z</time>
      </trkpt>
      <trkpt lat="46.20295" lon="-1.05498">
        <ele>8.495</ele>
        <time>2019-11-05T13:11:52.001Z</time>
      </trkpt>
      <trkpt lat="46.20408" lon="-1.05416">
        <ele>10.075</ele>
        <time>2019-11-05T13:12:25.001Z</time>
      </trkpt>
      <trkpt lat="46.20435" lon="-1.05313">
        <ele>10.635</ele>
        <time>2019-11-05T13:12:55.001Z</time>
      </trkpt>
      <trkpt lat="46.20435" lon="-1.05312">
        <ele>9.276</ele>
        <time>2019-11-05T13:16:55.001Z</time>
      </trkpt>
      <trkpt lat="46.20467" lon="-1.05373">
        <ele>12.863</ele>
        <time>2019-11-05T13:17:28.001Z</time>
      </trkpt>
      <trkpt lat="46.20551" lon="-1.0533">
        <ele>10.267</ele>
        <time>2019-11-05T13:17:58.001Z</time>
      </trkpt>
      <trkpt lat="46.20635" lon="-1.05285">
        <ele>11.852</ele>
        <time>2019-11-05T13:18:28.001Z</time>
      </trkpt>
      <trkpt lat="46.20728" lon="-1.05231">
        <ele>14.104</ele>
        <time>2019-11-05T13:18:58.001Z</time>
      </trkpt>
      <trkpt lat="46.20774" lon="-1.05078">
        <ele>6.627</ele>
        <time>2019-11-05T13:19:31.001Z</time>
      </trkpt>
      <trkpt lat="46.20816" lon="-1.04941">
        <ele>3.194</ele>
        <time>2019-11-05T13:20:01.001Z</time>
      </trkpt>
      <trkpt lat="46.20933" lon="-1.04924">
        <ele>7.115</ele>
        <time>2019-11-05T13:20:31.001Z</time>
      </trkpt>
      <trkpt lat="46.2104" lon="-1.04919">
        <ele>8.043</ele>
        <time>2019-11-05T13:21:04.001Z</time>
      </trkpt>
      <trkpt lat="46.21139" lon="-1.04929">
        <ele>8.37</ele>
        <time>2019-11-05T13:21:34.001Z</time>
      </trkpt>
      <trkpt lat="46.21127" lon="-1.04769">
        <ele>4.581</ele>
        <time>2019-11-05T13:22:04.001Z</time>
      </trkpt>
      <trkpt lat="46.21155" lon="-1.0474">
        <ele>3.378</ele>
        <time>2019-11-05T13:23:13.001Z</time>
      </trkpt>
      <trkpt lat="46.2114" lon="-1.04819">
        <ele>5.362</ele>
        <time>2019-11-05T13:23:46.001Z</time>
      </trkpt>
      <trkpt lat="46.21174" lon="-1.04887">
        <ele>6.114</ele>
        <time>2019-11-05T13:24:16Z</time>
      </trkpt>
      <trkpt lat="46.21256" lon="-1.04788">
        <ele>4.172</ele>
        <time>2019-11-05T13:24:46.001Z</time>
      </trkpt>
      <trkpt lat="46.21307" lon="-1.04687">
        <ele>1.969</ele>
        <time>2019-11-05T13:25:19.001Z</time>
      </trkpt>
      <trkpt lat="46.21306" lon="-1.04703">
        <ele>2.658</ele>
        <time>2019-11-05T13:26:10.001Z</time>
      </trkpt>
      <trkpt lat="46.21328" lon="-1.04712">
        <ele>1.541</ele>
        <time>2019-11-05T13:26:43.001Z</time>
      </trkpt>
      <trkpt lat="46.21364" lon="-1.04598">
        <ele>4.586</ele>
        <time>2019-11-05T13:27:19.001Z</time>
      </trkpt>
      <trkpt lat="46.2138" lon="-1.04555">
        <ele>10.326</ele>
        <time>2019-11-05T13:28:10.001Z</time>
      </trkpt>
      <trkpt lat="46.21447" lon="-1.04579">
        <ele>7.624</ele>
        <time>2019-11-05T13:28:40.001Z</time>
      </trkpt>
      <trkpt lat="46.21547" lon="-1.04622">
        <ele>3.935</ele>
        <time>2019-11-05T13:29:10.001Z</time>
      </trkpt>
      <trkpt lat="46.21659" lon="-1.04664">
        <ele>7.658</ele>
        <time>2019-11-05T13:29:43.001Z</time>
      </trkpt>
      <trkpt lat="46.21763" lon="-1.04708">
        <ele>3.704</ele>
        <time>2019-11-05T13:30:13.001Z</time>
      </trkpt>
      <trkpt lat="46.21868" lon="-1.04755">
        <ele>2.393</ele>
        <time>2019-11-05T13:30:43.001Z</time>
      </trkpt>
      <trkpt lat="46.21979" lon="-1.04798">
        <ele>7.612</ele>
        <time>2019-11-05T13:31:16Z</time>
      </trkpt>
      <trkpt lat="46.22086" lon="-1.0484">
        <ele>11.212</ele>
        <time>2019-11-05T13:31:46.001Z</time>
      </trkpt>
      <trkpt lat="46.22195" lon="-1.04891">
        <ele>10.322</ele>
        <time>2019-11-05T13:32:16Z</time>
      </trkpt>
      <trkpt lat="46.22311" lon="-1.04938">
        <ele>8.712</ele>
        <time>2019-11-05T13:32:49.001Z</time>
      </trkpt>
      <trkpt lat="46.22413" lon="-1.04976">
        <ele>4.626</ele>
        <time>2019-11-05T13:33:19.001Z</time>
      </trkpt>
      <trkpt lat="46.22519" lon="-1.05023">
        <ele>3.397</ele>
        <time>2019-11-05T13:33:49.001Z</time>
      </trkpt>
      <trkpt lat="46.22627" lon="-1.05071">
        <ele>5.418</ele>
        <time>2019-11-05T13:34:19.001Z</time>
      </trkpt>
      <trkpt lat="46.22752" lon="-1.05117">
        <ele>8.514</ele>
        <time>2019-11-05T13:34:52.001Z</time>
      </trkpt>
      <trkpt lat="46.22861" lon="-1.05168">
        <ele>6.74</ele>
        <time>2019-11-05T13:35:22.001Z</time>
      </trkpt>
      <trkpt lat="46.22977" lon="-1.05168">
        <ele>3.929</ele>
        <time>2019-11-05T13:35:52.001Z</time>
      </trkpt>
      <trkpt lat="46.23104" lon="-1.05127">
        <ele>2.566</ele>
        <time>2019-11-05T13:36:25.001Z</time>
      </trkpt>
      <trkpt lat="46.23218" lon="-1.05085">
        <ele>2.098</ele>
        <time>2019-11-05T13:36:55.001Z</time>
      </trkpt>
      <trkpt lat="46.23333" lon="-1.05041">
        <ele>2.73</ele>
        <time>2019-11-05T13:37:25.001Z</time>
      </trkpt>
      <trkpt lat="46.2345" lon="-1.04997">
        <ele>2.042</ele>
        <time>2019-11-05T13:37:55.001Z</time>
      </trkpt>
      <trkpt lat="46.23578" lon="-1.0495">
        <ele>4.247</ele>
        <time>2019-11-05T13:38:28.001Z</time>
      </trkpt>
      <trkpt lat="46.23698" lon="-1.04905">
        <ele>3.521</ele>
        <time>2019-11-05T13:38:58.001Z</time>
      </trkpt>
      <trkpt lat="46.2382" lon="-1.04861">
        <ele>3.2</ele>
        <time>2019-11-05T13:39:28.001Z</time>
      </trkpt>
      <trkpt lat="46.23958" lon="-1.0481">
        <ele>2.192</ele>
        <time>2019-11-05T13:40:01.001Z</time>
      </trkpt>
      <trkpt lat="46.24073" lon="-1.04765">
        <ele>1.426</ele>
        <time>2019-11-05T13:40:31.001Z</time>
      </trkpt>
      <trkpt lat="46.24189" lon="-1.04724">
        <ele>3.864</ele>
        <time>2019-11-05T13:41:01.001Z</time>
      </trkpt>
      <trkpt lat="46.24316" lon="-1.04678">
        <ele>0.8</ele>
        <time>2019-11-05T13:41:34.001Z</time>
      </trkpt>
      <trkpt lat="46.24437" lon="-1.04633">
        <ele>1.239</ele>
        <time>2019-11-05T13:42:04.001Z</time>
      </trkpt>
      <trkpt lat="46.24553" lon="-1.04587">
        <ele>2.267</ele>
        <time>2019-11-05T13:42:34.001Z</time>
      </trkpt>
      <trkpt lat="46.24667" lon="-1.04547">
        <ele>4.606</ele>
        <time>2019-11-05T13:43:04.001Z</time>
      </trkpt>
      <trkpt lat="46.24784" lon="-1.04504">
        <ele>2.78</ele>
        <time>2019-11-05T13:43:37.001Z</time>
      </trkpt>
      <trkpt lat="46.24871" lon="-1.04469">
        <ele>2.647</ele>
        <time>2019-11-05T13:44:10.001Z</time>
      </trkpt>
      <trkpt lat="46.24988" lon="-1.04429">
        <ele>1.798</ele>
        <time>2019-11-05T13:44:40.001Z</time>
      </trkpt>
      <trkpt lat="46.25108" lon="-1.04385">
        <ele>3.375</ele>
        <time>2019-11-05T13:45:13.001Z</time>
      </trkpt>
      <trkpt lat="46.25221" lon="-1.04342">
        <ele>2.237</ele>
        <time>2019-11-05T13:45:43.001Z</time>
      </trkpt>
      <trkpt lat="46.25338" lon="-1.04298">
        <ele>2.372</ele>
        <time>2019-11-05T13:46:13.001Z</time>
      </trkpt>
      <trkpt lat="46.25451" lon="-1.04257">
        <ele>0.51</ele>
        <time>2019-11-05T13:46:43.001Z</time>
      </trkpt>
      <trkpt lat="46.25582" lon="-1.0421">
        <ele>2.5</ele>
        <time>2019-11-05T13:47:16Z</time>
      </trkpt>
      <trkpt lat="46.25693" lon="-1.04164">
        <ele>0.626</ele>
        <time>2019-11-05T13:47:46.001Z</time>
      </trkpt>
      <trkpt lat="46.25807" lon="-1.04125">
        <ele>1.151</ele>
        <time>2019-11-05T13:48:16Z</time>
      </trkpt>
      <trkpt lat="46.25943" lon="-1.04076">
        <ele>1.272</ele>
        <time>2019-11-05T13:48:49.001Z</time>
      </trkpt>
      <trkpt lat="46.26055" lon="-1.04031">
        <ele>0.996</ele>
        <time>2019-11-05T13:49:19.001Z</time>
      </trkpt>
      <trkpt lat="46.26169" lon="-1.03991">
        <ele>3.7</ele>
        <time>2019-11-05T13:49:49.001Z</time>
      </trkpt>
      <trkpt lat="46.26292" lon="-1.03942">
        <ele>3.5</ele>
        <time>2019-11-05T13:50:22.001Z</time>
      </trkpt>
      <trkpt lat="46.26404" lon="-1.03902">
        <ele>0.686</ele>
        <time>2019-11-05T13:50:52.001Z</time>
      </trkpt>
      <trkpt lat="46.26519" lon="-1.0386">
        <ele>0.8</ele>
        <time>2019-11-05T13:51:22.001Z</time>
      </trkpt>
      <trkpt lat="46.26638" lon="-1.03815">
        <ele>4.264</ele>
        <time>2019-11-05T13:51:52.001Z</time>
      </trkpt>
      <trkpt lat="46.26757" lon="-1.03771">
        <ele>2.501</ele>
        <time>2019-11-05T13:52:25.001Z</time>
      </trkpt>
      <trkpt lat="46.26871" lon="-1.0373">
        <ele>0.575</ele>
        <time>2019-11-05T13:52:55.001Z</time>
      </trkpt>
      <trkpt lat="46.26985" lon="-1.03687">
        <ele>1.353</ele>
        <time>2019-11-05T13:53:25.001Z</time>
      </trkpt>
      <trkpt lat="46.2711" lon="-1.03642">
        <ele>0.654</ele>
        <time>2019-11-05T13:53:58.001Z</time>
      </trkpt>
      <trkpt lat="46.27218" lon="-1.03603">
        <ele>3.002</ele>
        <time>2019-11-05T13:54:28.001Z</time>
      </trkpt>
      <trkpt lat="46.27334" lon="-1.03559">
        <ele>2.56</ele>
        <time>2019-11-05T13:54:58.001Z</time>
      </trkpt>
      <trkpt lat="46.27443" lon="-1.03517">
        <ele>2.163</ele>
        <time>2019-11-05T13:55:28.001Z</time>
      </trkpt>
      <trkpt lat="46.27565" lon="-1.0347">
        <ele>2.2</ele>
        <time>2019-11-05T13:56:01.001Z</time>
      </trkpt>
      <trkpt lat="46.2768" lon="-1.03431">
        <ele>0.652</ele>
        <time>2019-11-05T13:56:31.001Z</time>
      </trkpt>
      <trkpt lat="46.2779" lon="-1.03388">
        <ele>1.525</ele>
        <time>2019-11-05T13:57:01.001Z</time>
      </trkpt>
      <trkpt lat="46.27914" lon="-1.03344">
        <ele>1.761</ele>
        <time>2019-11-05T13:57:34.001Z</time>
      </trkpt>
      <trkpt lat="46.28022" lon="-1.03304">
        <ele>1.519</ele>
        <time>2019-11-05T13:58:04.001Z</time>
      </trkpt>
      <trkpt lat="46.28131" lon="-1.03259">
        <ele>1.638</ele>
        <time>2019-11-05T13:58:34.001Z</time>
      </trkpt>
      <trkpt lat="46.28257" lon="-1.03207">
        <ele>2.7</ele>
        <time>2019-11-05T13:59:07.001Z</time>
      </trkpt>
      <trkpt lat="46.28372" lon="-1.03164">
        <ele>1.9</ele>
        <time>2019-11-05T13:59:37.001Z</time>
      </trkpt>
      <trkpt lat="46.28486" lon="-1.03123">
        <ele>1.5</ele>
        <time>2019-11-05T14:00:07.001Z</time>
      </trkpt>
      <trkpt lat="46.28601" lon="-1.03082">
        <ele>1.1</ele>
        <time>2019-11-05T14:00:37.001Z</time>
      </trkpt>
      <trkpt lat="46.28715" lon="-1.03037">
        <ele>1</ele>
        <time>2019-11-05T14:01:10.001Z</time>
      </trkpt>
      <trkpt lat="46.28819" lon="-1.03">
        <ele>1</ele>
        <time>2019-11-05T14:01:40.001Z</time>
      </trkpt>
      <trkpt lat="46.28934" lon="-1.0297">
        <ele>1</ele>
        <time>2019-11-05T14:02:10.001Z</time>
      </trkpt>
      <trkpt lat="46.29048" lon="-1.02927">
        <ele>1</ele>
        <time>2019-11-05T14:02:43.001Z</time>
      </trkpt>
      <trkpt lat="46.29152" lon="-1.02889">
        <ele>1.9</ele>
        <time>2019-11-05T14:03:13.001Z</time>
      </trkpt>
      <trkpt lat="46.2925" lon="-1.02855">
        <ele>0.052</ele>
        <time>2019-11-05T14:03:43.001Z</time>
      </trkpt>
      <trkpt lat="46.29374" lon="-1.02806">
        <ele>0.233</ele>
        <time>2019-11-05T14:04:16Z</time>
      </trkpt>
      <trkpt lat="46.29488" lon="-1.02764">
        <ele>1.7</ele>
        <time>2019-11-05T14:04:46.001Z</time>
      </trkpt>
      <trkpt lat="46.29601" lon="-1.02721">
        <ele>1.6</ele>
        <time>2019-11-05T14:05:16Z</time>
      </trkpt>
      <trkpt lat="46.2971" lon="-1.02681">
        <ele>1</ele>
        <time>2019-11-05T14:05:46.001Z</time>
      </trkpt>
      <trkpt lat="46.29832" lon="-1.02637">
        <ele>1.9</ele>
        <time>2019-11-05T14:06:19.001Z</time>
      </trkpt>
      <trkpt lat="46.29904" lon="-1.02584">
        <ele>2.1</ele>
        <time>2019-11-05T14:06:49.001Z</time>
      </trkpt>
      <trkpt lat="46.29979" lon="-1.02579">
        <ele>1.9</ele>
        <time>2019-11-05T14:07:19.001Z</time>
      </trkpt>
      <trkpt lat="46.30071" lon="-1.02536">
        <ele>0.257</ele>
        <time>2019-11-05T14:07:52.001Z</time>
      </trkpt>
      <trkpt lat="46.30131" lon="-1.02522">
        <ele>2.5</ele>
        <time>2019-11-05T14:08:22.001Z</time>
      </trkpt>
      <trkpt lat="46.30214" lon="-1.02483">
        <ele>3.5</ele>
        <time>2019-11-05T14:08:52.001Z</time>
      </trkpt>
      <trkpt lat="46.30292" lon="-1.02457">
        <ele>2.5</ele>
        <time>2019-11-05T14:09:25.001Z</time>
      </trkpt>
      <trkpt lat="46.3041" lon="-1.02421">
        <ele>1.1</ele>
        <time>2019-11-05T14:09:58.001Z</time>
      </trkpt>
      <trkpt lat="46.30519" lon="-1.02383">
        <ele>1.6</ele>
        <time>2019-11-05T14:10:28.001Z</time>
      </trkpt>
      <trkpt lat="46.30625" lon="-1.02343">
        <ele>2.5</ele>
        <time>2019-11-05T14:10:58.001Z</time>
      </trkpt>
      <trkpt lat="46.3074" lon="-1.02287">
        <ele>2.2</ele>
        <time>2019-11-05T14:11:31.001Z</time>
      </trkpt>
      <trkpt lat="46.30829" lon="-1.02199">
        <ele>1.9</ele>
        <time>2019-11-05T14:12:01.001Z</time>
      </trkpt>
      <trkpt lat="46.309" lon="-1.021">
        <ele>2</ele>
        <time>2019-11-05T14:12:31.001Z</time>
      </trkpt>
      <trkpt lat="46.30962" lon="-1.01946">
        <ele>2.5</ele>
        <time>2019-11-05T14:13:04.001Z</time>
      </trkpt>
      <trkpt lat="46.31008" lon="-1.01804">
        <ele>1.741</ele>
        <time>2019-11-05T14:13:34.001Z</time>
      </trkpt>
      <trkpt lat="46.31052" lon="-1.01654">
        <ele>2.006</ele>
        <time>2019-11-05T14:14:04.001Z</time>
      </trkpt>
      <trkpt lat="46.31098" lon="-1.015">
        <ele>3.7</ele>
        <time>2019-11-05T14:14:34.001Z</time>
      </trkpt>
      <trkpt lat="46.31148" lon="-1.01338">
        <ele>2.2</ele>
        <time>2019-11-05T14:15:07.001Z</time>
      </trkpt>
      <trkpt lat="46.3119" lon="-1.01197">
        <ele>0.742</ele>
        <time>2019-11-05T14:15:37.001Z</time>
      </trkpt>
      <trkpt lat="46.31236" lon="-1.01048">
        <ele>4.1</ele>
        <time>2019-11-05T14:16:07.001Z</time>
      </trkpt>
      <trkpt lat="46.31287" lon="-1.00873">
        <ele>4</ele>
        <time>2019-11-05T14:16:40.001Z</time>
      </trkpt>
      <trkpt lat="46.31334" lon="-1.00723">
        <ele>4.4</ele>
        <time>2019-11-05T14:17:10.001Z</time>
      </trkpt>
      <trkpt lat="46.3138" lon="-1.00567">
        <ele>0.404</ele>
        <time>2019-11-05T14:17:40.001Z</time>
      </trkpt>
      <trkpt lat="46.31409" lon="-1.00413">
        <ele>0.395</ele>
        <time>2019-11-05T14:18:10.002Z</time>
      </trkpt>
      <trkpt lat="46.31372" lon="-1.0023">
        <ele>1.3</ele>
        <time>2019-11-05T14:18:43.001Z</time>
      </trkpt>
      <trkpt lat="46.31317" lon="-1.00058">
        <ele>3.686</ele>
        <time>2019-11-05T14:19:13.001Z</time>
      </trkpt>
      <trkpt lat="46.31233" lon="-0.99913">
        <ele>7.612</ele>
        <time>2019-11-05T14:19:43.001Z</time>
      </trkpt>
      <trkpt lat="46.31235" lon="-0.99733">
        <ele>4.938</ele>
        <time>2019-11-05T14:20:16Z</time>
      </trkpt>
      <trkpt lat="46.31238" lon="-0.99586">
        <ele>5.3</ele>
        <time>2019-11-05T14:20:46.001Z</time>
      </trkpt>
      <trkpt lat="46.3115" lon="-0.99456">
        <ele>6.1</ele>
        <time>2019-11-05T14:21:16Z</time>
      </trkpt>
      <trkpt lat="46.31134" lon="-0.9933">
        <ele>1.889</ele>
        <time>2019-11-05T14:21:49.001Z</time>
      </trkpt>
      <trkpt lat="46.31133" lon="-0.99193">
        <ele>9.413</ele>
        <time>2019-11-05T14:22:19.001Z</time>
      </trkpt>
      <trkpt lat="46.31123" lon="-0.99169">
        <ele>9.095</ele>
        <time>2019-11-05T14:24:19.001Z</time>
      </trkpt>
      <trkpt lat="46.31164" lon="-0.99153">
        <ele>9.079</ele>
        <time>2019-11-05T14:25:10.001Z</time>
      </trkpt>
      <trkpt lat="46.31298" lon="-0.99165">
        <ele>8.405</ele>
        <time>2019-11-05T14:25:43.001Z</time>
      </trkpt>
      <trkpt lat="46.31307" lon="-0.99213">
        <ele>1.331</ele>
        <time>2019-11-05T14:39:10.001Z</time>
      </trkpt>
      <trkpt lat="46.31287" lon="-0.99195">
        <ele>3.269</ele>
        <time>2019-11-05T14:58:58.001Z</time>
      </trkpt>
      <trkpt lat="46.31309" lon="-0.99118">
        <ele>2.546</ele>
        <time>2019-11-05T14:59:31.001Z</time>
      </trkpt>
      <trkpt lat="46.31427" lon="-0.99097">
        <ele>3.079</ele>
        <time>2019-11-05T15:00:01.001Z</time>
      </trkpt>
      <trkpt lat="46.31553" lon="-0.99118">
        <ele>1.922</ele>
        <time>2019-11-05T15:00:31.001Z</time>
      </trkpt>
      <trkpt lat="46.31675" lon="-0.99158">
        <ele>0.162</ele>
        <time>2019-11-05T15:01:01.001Z</time>
      </trkpt>
      <trkpt lat="46.31796" lon="-0.99197">
        <ele>5.68</ele>
        <time>2019-11-05T15:01:34.001Z</time>
      </trkpt>
      <trkpt lat="46.31917" lon="-0.99208">
        <ele>0.495</ele>
        <time>2019-11-05T15:02:04.001Z</time>
      </trkpt>
      <trkpt lat="46.31928" lon="-0.99166">
        <ele>2.8</ele>
        <time>2019-11-05T15:04:31.001Z</time>
      </trkpt>
      <trkpt lat="46.31878" lon="-0.99177">
        <ele>3.5</ele>
        <time>2019-11-05T15:07:04.001Z</time>
      </trkpt>
      <trkpt lat="46.31874" lon="-0.9917">
        <ele>3.5</ele>
        <time>2019-11-05T15:08:49.001Z</time>
      </trkpt>
      <trkpt lat="46.31894" lon="-0.99176">
        <ele>3.4</ele>
        <time>2019-11-05T15:09:34.001Z</time>
      </trkpt>
      <trkpt lat="46.31883" lon="-0.99174">
        <ele>3.4</ele>
        <time>2019-11-05T15:10:31.001Z</time>
      </trkpt>
      <trkpt lat="46.3188" lon="-0.9917">
        <ele>3.5</ele>
        <time>2019-11-05T15:13:16Z</time>
      </trkpt>
    </trkseg>
  </trk>
</gpx>